Time;durP1;ratioP1;P1;durP2;ratioP2;P2;SDS_P1;SDS_P2;PMS_P1;PMS_P2;Temp;Humidity;BMP_temperature;BMP_pressure;BME280_temperature;BME280_humidity;BME280_pressure;Samples;Min_cycle;Max_cycle;Signal;HPM_P1;HPM_P2
2022/07/29 00:02:01;;;;;;;;;3.00;3.00;;;;;;;;5008761;28;45500;-71
2022/07/29 00:04:26;;;;;;;;;2.33;2.33;;;;;;;;5016742;28;45997;-71
2022/07/29 00:06:51;;;;;;;;;4.00;3.75;;;;;;;;5016986;28;46088;-71
2022/07/29 00:09:17;;;;;;;;;1.33;1.33;;;;;;;;5016968;28;45406;-71
2022/07/29 00:11:42;;;;;;;;;2.00;2.00;;;;;;;;5017567;28;45427;-71
2022/07/29 00:14:08;;;;;;;;;2.33;2.33;;;;;;;;5017397;28;46304;-71
2022/07/29 00:16:33;;;;;;;;;2.00;2.00;;;;;;;;5017397;28;45856;-71
2022/07/29 00:18:58;;;;;;;;;2.00;2.00;;;;;;;;5017286;28;45327;-71
2022/07/29 00:21:23;;;;;;;;;2.33;2.33;;;;;;;;5017295;28;45404;-71
2022/07/29 00:23:49;;;;;;;;;1.67;1.67;;;;;;;;5016829;28;46009;-71
2022/07/29 00:26:14;;;;;;;;;2.33;1.33;;;;;;;;5017322;28;45424;-71
2022/07/29 00:28:39;;;;;;;;;1.33;1.33;;;;;;;;5016702;28;45348;-71
2022/07/29 00:31:04;;;;;;;;;3.33;2.33;;;;;;;;5016603;28;45279;-71
2022/07/29 00:33:30;;;;;;;;;2.00;2.00;;;;;;;;5016375;28;46315;-71
2022/07/29 00:35:55;;;;;;;;;1.33;1.33;;;;;;;;5016299;28;45464;-71
2022/07/29 00:38:20;;;;;;;;;3.00;3.00;;;;;;;;5016688;28;45372;-72
2022/07/29 00:40:46;;;;;;;;;3.00;3.00;;;;;;;;5017019;28;45312;-71
2022/07/29 00:43:12;;;;;;;;;2.00;2.00;;;;;;;;5016643;28;46353;-71
2022/07/29 00:45:37;;;;;;;;;2.33;2.33;;;;;;;;5016675;28;45281;-71
2022/07/29 00:48:04;;;;;;;;;2.33;2.33;;;;;;;;5016625;28;45511;-71
2022/07/29 00:50:30;;;;;;;;;3.33;2.33;;;;;;;;5016773;28;45482;-71
2022/07/29 00:52:55;;;;;;;;;2.00;2.00;;;;;;;;5002363;28;46221;-71
2022/07/29 00:55:20;;;;;;;;;3.33;3.33;;;;;;;;5016773;28;45436;-71
2022/07/29 00:57:46;;;;;;;;;3.00;3.00;;;;;;;;5016765;28;45386;-71
2022/07/29 01:00:21;;;;;;;;;2.00;2.00;;;;;;;;5016086;28;45830;-71
2022/07/29 01:02:50;;;;;;;;;4.00;4.00;;;;;;;;5016452;28;45406;-71
2022/07/29 01:05:17;;;;;;;;;1.33;1.33;;;;;;;;5015888;28;45585;-71
2022/07/29 01:07:44;;;;;;;;;3.75;2.25;;;;;;;;5015602;28;45512;-71
2022/07/29 01:10:11;;;;;;;;;2.67;2.67;;;;;;;;5010573;28;45425;-71
2022/07/29 01:12:37;;;;;;;;;1.67;1.33;;;;;;;;5016165;28;47023;-71
2022/07/29 01:15:04;;;;;;;;;2.00;2.00;;;;;;;;5016525;28;45356;-71
2022/07/29 01:17:33;;;;;;;;;2.33;2.33;;;;;;;;5016268;28;45388;-71
2022/07/29 01:20:14;;;;;;;;;2.00;1.00;;;;;;;;5016032;28;45416;-71
2022/07/29 01:22:51;;;;;;;;;2.33;2.33;;;;;;;;5015903;28;46250;-71
2022/07/29 01:25:44;;;;;;;;;3.00;2.00;;;;;;;;5016308;28;45380;-72
2022/07/29 01:28:28;;;;;;;;;2.67;2.67;;;;;;;;5016099;28;45600;-71
2022/07/29 01:30:54;;;;;;;;;2.67;1.33;;;;;;;;5015584;28;45380;-71
2022/07/29 01:36:10;;;;;;;;;3.00;3.00;;;;;;;;5016101;28;45360;-71
2022/07/29 01:38:37;;;;;;;;;2.33;2.33;;;;;;;;5016187;28;45436;-71
2022/07/29 01:41:08;;;;;;;;;4.33;2.67;;;;;;;;5015027;28;45461;-71
2022/07/29 01:43:51;;;;;;;;;3.00;3.00;;;;;;;;5015817;28;45298;-71
2022/07/29 01:46:31;;;;;;;;;2.33;2.33;;;;;;;;5003521;28;45432;-71
2022/07/29 01:48:59;;;;;;;;;2.67;2.00;;;;;;;;5016043;28;45363;-71
2022/07/29 01:51:39;;;;;;;;;2.00;2.00;;;;;;;;5015419;28;45370;-71
2022/07/29 01:54:05;;;;;;;;;3.33;2.00;;;;;;;;5015568;28;46297;-71
2022/07/29 01:56:33;;;;;;;;;3.33;2.00;;;;;;;;5014582;28;45542;-71
2022/07/29 01:58:59;;;;;;;;;3.33;3.00;;;;;;;;5015947;28;45384;-71
2022/07/29 02:01:25;;;;;;;;;3.00;2.00;;;;;;;;5014796;28;45523;-71
2022/07/29 02:03:52;;;;;;;;;2.67;2.67;;;;;;;;5015248;28;45507;-71
2022/07/29 02:06:19;;;;;;;;;4.00;2.00;;;;;;;;5015249;28;45367;-71
2022/07/29 02:08:45;;;;;;;;;2.00;1.00;;;;;;;;5014546;28;45313;-71
2022/07/29 02:11:10;;;;;;;;;3.00;2.00;;;;;;;;5014978;28;45254;-71
2022/07/29 02:13:37;;;;;;;;;2.00;2.00;;;;;;;;5015317;28;47245;-70
2022/07/29 02:16:03;;;;;;;;;2.67;2.67;;;;;;;;5015305;28;45450;-71
2022/07/29 02:18:30;;;;;;;;;2.00;2.00;;;;;;;;5015197;28;45489;-71
2022/07/29 02:20:56;;;;;;;;;3.00;3.00;;;;;;;;5010707;28;45387;-71
2022/07/29 02:23:22;;;;;;;;;2.00;2.00;;;;;;;;5013503;28;46304;-71
2022/07/29 02:25:54;;;;;;;;;2.00;2.00;;;;;;;;5007155;28;45416;-71
2022/07/29 02:28:21;;;;;;;;;2.00;2.00;;;;;;;;5012930;28;45273;-71
2022/07/29 02:30:47;;;;;;;;;2.00;2.00;;;;;;;;5014869;28;45344;-71
2022/07/29 02:33:14;;;;;;;;;1.67;1.67;;;;;;;;5014993;28;46300;-71
2022/07/29 02:35:40;;;;;;;;;1.00;1.00;;;;;;;;5014616;28;45335;-71
2022/07/29 02:40:53;;;;;;;;;2.00;2.00;;;;;;;;5013666;28;45233;-71
2022/07/29 02:43:19;;;;;;;;;3.00;3.00;;;;;;;;5014848;28;47127;-71
2022/07/29 02:45:47;;;;;;;;;3.00;3.00;;;;;;;;5014896;28;45367;-71
2022/07/29 02:48:14;;;;;;;;;2.00;2.00;;;;;;;;5015205;28;45377;-71
2022/07/29 02:50:51;;;;;;;;;3.00;3.00;;;;;;;;5013894;28;45598;-71
2022/07/29 02:53:22;;;;;;;;;3.00;3.00;;;;;;;;5018249;28;46441;-72
2022/07/29 02:55:47;;;;;;;;;3.00;3.00;;;;;;;;5018306;28;45447;-71
2022/07/29 02:58:15;;;;;;;;;2.33;2.33;;;;;;;;5018652;28;45424;-71
2022/07/29 03:00:41;;;;;;;;;3.00;2.67;;;;;;;;5018018;28;45478;-71
2022/07/29 03:03:12;;;;;;;;;1.00;1.00;;;;;;;;5018146;28;46250;-71
2022/07/29 03:05:38;;;;;;;;;2.00;2.00;;;;;;;;5018457;28;45383;-71
2022/07/29 03:08:06;;;;;;;;;3.00;3.00;;;;;;;;5018197;28;45388;-71
2022/07/29 03:10:31;;;;;;;;;1.00;1.00;;;;;;;;5018304;28;45759;-71
2022/07/29 03:12:57;;;;;;;;;2.33;2.00;;;;;;;;5017964;28;46082;-71
2022/07/29 03:15:23;;;;;;;;;2.00;2.00;;;;;;;;5018251;28;45249;-71
2022/07/29 03:17:49;;;;;;;;;2.00;2.00;;;;;;;;5017008;28;45436;-71
2022/07/29 03:20:14;;;;;;;;;2.00;2.00;;;;;;;;5018373;28;45313;-71
2022/07/29 03:22:43;;;;;;;;;2.00;2.00;;;;;;;;5018014;28;45463;-71
2022/07/29 03:25:12;;;;;;;;;2.33;2.33;;;;;;;;5017448;28;45368;-71
2022/07/29 03:27:37;;;;;;;;;2.67;1.67;;;;;;;;5018231;28;45317;-71
2022/07/29 03:30:03;;;;;;;;;2.33;2.33;;;;;;;;5014976;28;45349;-71
2022/07/29 03:32:28;;;;;;;;;1.67;1.33;;;;;;;;5017062;28;45865;-71
2022/07/29 03:34:54;;;;;;;;;1.00;1.00;;;;;;;;5017413;28;45396;-71
2022/07/29 03:37:19;;;;;;;;;3.33;2.67;;;;;;;;5018110;28;45350;-71
2022/07/29 03:39:45;;;;;;;;;3.67;3.67;;;;;;;;5011974;28;45521;-71
2022/07/29 03:42:13;;;;;;;;;2.67;2.00;;;;;;;;5013377;28;46161;-71
2022/07/29 03:44:41;;;;;;;;;4.00;3.33;;;;;;;;5008207;28;45348;-71
2022/07/29 03:47:07;;;;;;;;;2.00;2.00;;;;;;;;5017468;28;45346;-72
2022/07/29 03:49:36;;;;;;;;;3.00;2.00;;;;;;;;5017669;28;45463;-71
2022/07/29 03:52:01;;;;;;;;;2.00;2.00;;;;;;;;5017609;28;45396;-71
2022/07/29 03:54:26;;;;;;;;;3.00;3.00;;;;;;;;5017610;28;45508;-71
2022/07/29 03:56:52;;;;;;;;;2.00;2.00;;;;;;;;5017754;28;45266;-71
2022/07/29 03:59:19;;;;;;;;;2.00;2.00;;;;;;;;5017533;28;45365;-71
2022/07/29 04:01:45;;;;;;;;;2.00;2.00;;;;;;;;5016685;28;46281;-71
2022/07/29 04:04:11;;;;;;;;;3.00;3.00;;;;;;;;5015119;28;45420;-71
2022/07/29 04:06:43;;;;;;;;;2.00;2.00;;;;;;;;5017505;28;45332;-71
2022/07/29 04:09:08;;;;;;;;;2.33;2.33;;;;;;;;5017649;28;45331;-72
2022/07/29 04:11:34;;;;;;;;;2.00;2.00;;;;;;;;5016920;28;45432;-71
2022/07/29 04:13:59;;;;;;;;;1.33;1.00;;;;;;;;5017224;28;45330;-71
2022/07/29 04:16:24;;;;;;;;;2.00;2.00;;;;;;;;5014313;28;45495;-71
2022/07/29 04:18:49;;;;;;;;;3.00;3.00;;;;;;;;5013462;28;45280;-71
2022/07/29 04:21:15;;;;;;;;;1.33;1.33;;;;;;;;5016719;28;47015;-71
2022/07/29 04:23:40;;;;;;;;;2.00;2.00;;;;;;;;5017295;28;45424;-71
2022/07/29 04:26:09;;;;;;;;;1.33;1.33;;;;;;;;5016759;28;45524;-71
2022/07/29 04:28:34;;;;;;;;;3.00;2.00;;;;;;;;5017133;28;45360;-71
2022/07/29 04:30:59;;;;;;;;;2.00;2.00;;;;;;;;5015890;28;46218;-71
2022/07/29 04:33:25;;;;;;;;;2.00;2.00;;;;;;;;5015113;28;45468;-71
2022/07/29 04:35:50;;;;;;;;;2.33;2.33;;;;;;;;5010095;28;45324;-71
2022/07/29 04:38:15;;;;;;;;;5.00;3.33;;;;;;;;5008942;28;45363;-71
2022/07/29 04:40:40;;;;;;;;;2.67;2.00;;;;;;;;5016681;28;47097;-71
2022/07/29 04:43:06;;;;;;;;;2.00;2.00;;;;;;;;5016049;28;45515;-71
2022/07/29 04:45:31;;;;;;;;;2.33;2.00;;;;;;;;5012826;28;45396;-71
2022/07/29 04:47:56;;;;;;;;;4.00;3.00;;;;;;;;5016552;28;45480;-71
2022/07/29 04:50:22;;;;;;;;;2.67;2.67;;;;;;;;5029307;28;46128;-71
2022/07/29 04:52:47;;;;;;;;;2.00;2.00;;;;;;;;5017336;28;45423;-71
2022/07/29 04:55:12;;;;;;;;;3.00;2.00;;;;;;;;5016842;28;45526;-72
2022/07/29 04:57:37;;;;;;;;;2.00;2.00;;;;;;;;5016726;28;45471;-71
2022/07/29 05:00:03;;;;;;;;;2.33;2.00;;;;;;;;5015601;28;47171;-71
2022/07/29 05:02:29;;;;;;;;;2.00;2.00;;;;;;;;5016553;28;45392;-71
2022/07/29 05:04:54;;;;;;;;;4.33;3.00;;;;;;;;5014652;28;45404;-71
2022/07/29 05:07:19;;;;;;;;;2.00;2.00;;;;;;;;5015712;28;45451;-70
2022/07/29 05:09:44;;;;;;;;;2.00;2.00;;;;;;;;5014642;28;46292;-71
2022/07/29 05:12:10;;;;;;;;;2.33;2.33;;;;;;;;5016531;28;45468;-71
2022/07/29 05:14:35;;;;;;;;;1.33;1.00;;;;;;;;5015718;28;45443;-71
2022/07/29 05:17:01;;;;;;;;;1.00;1.00;;;;;;;;5009188;28;45503;-71
2022/07/29 05:19:26;;;;;;;;;2.00;2.00;;;;;;;;5016247;28;45887;-71
2022/07/29 05:21:51;;;;;;;;;3.00;3.00;;;;;;;;5012906;28;45535;-71
2022/07/29 05:24:16;;;;;;;;;2.00;1.00;;;;;;;;5016425;28;45269;-71
2022/07/29 05:26:41;;;;;;;;;2.00;2.00;;;;;;;;5015463;28;45634;-70
2022/07/29 05:29:07;;;;;;;;;2.00;1.67;;;;;;;;5015799;28;46223;-71
2022/07/29 05:31:33;;;;;;;;;2.00;2.00;;;;;;;;5015766;28;45495;-71
2022/07/29 05:33:58;;;;;;;;;2.33;2.33;;;;;;;;5015315;28;45304;-71
2022/07/29 05:36:23;;;;;;;;;3.00;2.00;;;;;;;;5016026;28;45533;-71
2022/07/29 05:38:48;;;;;;;;;3.33;2.67;;;;;;;;5015653;28;45980;-71
2022/07/29 05:41:14;;;;;;;;;3.00;2.00;;;;;;;;5016017;28;45384;-71
2022/07/29 05:43:39;;;;;;;;;3.00;1.33;;;;;;;;5015047;28;45531;-72
2022/07/29 05:46:04;;;;;;;;;2.00;1.33;;;;;;;;5015382;28;45409;-71
2022/07/29 05:48:29;;;;;;;;;2.00;2.00;;;;;;;;5015873;28;46069;-71
2022/07/29 05:50:55;;;;;;;;;1.33;1.33;;;;;;;;5015744;28;45183;-71
2022/07/29 05:53:20;;;;;;;;;3.00;2.67;;;;;;;;5015838;28;45368;-72
2022/07/29 05:55:46;;;;;;;;;1.67;1.67;;;;;;;;5015955;28;45487;-71
2022/07/29 05:58:11;;;;;;;;;1.33;1.33;;;;;;;;5015527;28;46324;-71
2022/07/29 06:00:36;;;;;;;;;2.00;2.00;;;;;;;;5015099;28;45443;-71
2022/07/29 06:03:01;;;;;;;;;1.33;1.33;;;;;;;;5015629;28;45434;-71
2022/07/29 06:05:27;;;;;;;;;1.33;1.33;;;;;;;;5015130;28;45211;-71
2022/07/29 06:07:52;;;;;;;;;2.00;2.00;;;;;;;;5015470;28;47160;-70
2022/07/29 06:10:18;;;;;;;;;1.33;1.33;;;;;;;;5014855;28;45570;-71
2022/07/29 06:12:44;;;;;;;;;2.67;2.67;;;;;;;;5011327;28;45281;-71
2022/07/29 06:15:09;;;;;;;;;3.00;3.00;;;;;;;;5004061;28;45827;-71
2022/07/29 06:17:34;;;;;;;;;2.00;2.00;;;;;;;;5015425;28;45340;-71
2022/07/29 06:19:59;;;;;;;;;4.00;2.00;;;;;;;;5015133;28;45449;-71
2022/07/29 06:22:25;;;;;;;;;3.00;3.00;;;;;;;;5014898;28;45300;-71
2022/07/29 06:24:50;;;;;;;;;4.00;2.00;;;;;;;;5014500;28;45553;-71
2022/07/29 06:27:16;;;;;;;;;2.00;2.00;;;;;;;;5014383;28;47051;-71
2022/07/29 06:29:41;;;;;;;;;2.00;2.00;;;;;;;;5014701;28;45336;-71
2022/07/29 06:32:08;;;;;;;;;2.00;2.00;;;;;;;;5015540;28;45336;-70
2022/07/29 06:34:34;;;;;;;;;1.33;1.33;;;;;;;;5014560;28;45378;-73
2022/07/29 06:36:59;;;;;;;;;3.00;2.00;;;;;;;;5014665;28;46209;-71
2022/07/29 06:39:24;;;;;;;;;2.33;2.33;;;;;;;;5015017;28;45399;-70
2022/07/29 06:41:50;;;;;;;;;2.00;2.00;;;;;;;;5015241;28;45350;-72
2022/07/29 06:44:15;;;;;;;;;4.25;4.25;;;;;;;;5011095;28;45590;-71
2022/07/29 06:46:41;;;;;;;;;7.25;6.50;;;;;;;;5001210;28;46168;-71
2022/07/29 06:49:06;;;;;;;;;4.67;4.67;;;;;;;;5011178;28;45342;-71
2022/07/29 06:51:31;;;;;;;;;7.00;5.67;;;;;;;;5010769;28;45431;-71
2022/07/29 06:53:57;;;;;;;;;8.50;5.00;;;;;;;;5009959;28;45401;-71
2022/07/29 06:56:22;;;;;;;;;7.00;5.75;;;;;;;;5014081;28;46174;-72
2022/07/29 06:58:48;;;;;;;;;7.00;7.00;;;;;;;;5014341;28;45408;-74
2022/07/29 07:01:13;;;;;;;;;4.00;4.00;;;;;;;;5014097;28;45376;-74
2022/07/29 07:03:38;;;;;;;;;5.00;5.00;;;;;;;;5010268;28;45400;-74
2022/07/29 07:06:03;;;;;;;;;5.50;5.00;;;;;;;;5011417;28;46868;-74
2022/07/29 07:08:28;;;;;;;;;8.25;6.50;;;;;;;;5010586;28;45401;-74
2022/07/29 07:10:54;;;;;;;;;6.25;6.25;;;;;;;;5002640;28;45423;-74
2022/07/29 07:13:20;;;;;;;;;7.75;6.00;;;;;;;;5010911;28;45473;-72
2022/07/29 07:15:47;;;;;;;;;5.00;5.00;;;;;;;;5002822;28;45560;-72
2022/07/29 07:18:13;;;;;;;;;5.00;5.00;;;;;;;;5009280;28;45448;-74
2022/07/29 07:20:38;;;;;;;;;7.00;5.00;;;;;;;;5014594;28;45416;-73
2022/07/29 07:23:04;;;;;;;;;4.00;4.00;;;;;;;;5014254;28;45479;-73
2022/07/29 07:25:29;;;;;;;;;6.75;5.75;;;;;;;;5014070;28;46300;-73
2022/07/29 07:27:55;;;;;;;;;5.00;3.33;;;;;;;;5014480;28;45427;-73
2022/07/29 07:30:20;;;;;;;;;5.75;5.75;;;;;;;;5013014;28;45416;-74
2022/07/29 07:32:45;;;;;;;;;4.75;4.50;;;;;;;;5012755;28;45376;-74
2022/07/29 07:35:10;;;;;;;;;4.50;4.00;;;;;;;;5012216;28;47140;-73
2022/07/29 07:37:36;;;;;;;;;5.25;5.25;;;;;;;;5014380;28;45459;-73
2022/07/29 07:40:01;;;;;;;;;7.00;6.00;;;;;;;;5016788;28;45324;-74
2022/07/29 07:42:27;;;;;;;;;5.00;5.00;;;;;;;;5018019;28;45217;-73
2022/07/29 07:44:52;;;;;;;;;5.75;4.50;;;;;;;;5013541;28;46296;-74
2022/07/29 07:47:19;;;;;;;;;7.00;6.00;;;;;;;;5013094;28;45417;-73
2022/07/29 07:49:46;;;;;;;;;5.00;5.00;;;;;;;;5017766;28;45402;-73
2022/07/29 07:52:11;;;;;;;;;5.00;3.33;;;;;;;;5016997;28;45535;-74
2022/07/29 07:54:36;;;;;;;;;4.00;4.00;;;;;;;;5017180;28;46227;-73
2022/07/29 07:57:01;;;;;;;;;7.00;5.25;;;;;;;;5017650;28;45440;-74
2022/07/29 07:59:26;;;;;;;;;5.75;5.75;;;;;;;;5017472;28;45288;-74
2022/07/29 08:01:51;;;;;;;;;5.25;4.00;;;;;;;;5017301;28;45402;-73
2022/07/29 08:04:17;;;;;;;;;6.25;6.25;;;;;;;;5017514;28;46084;-74
2022/07/29 08:06:42;;;;;;;;;6.67;5.33;;;;;;;;5016385;28;45437;-73
2022/07/29 08:09:07;;;;;;;;;3.33;3.33;;;;;;;;5016528;28;45317;-73
2022/07/29 08:11:32;;;;;;;;;3.50;3.25;;;;;;;;5016596;28;45273;-74
2022/07/29 08:13:58;;;;;;;;;4.00;4.00;;;;;;;;5017506;28;46106;-73
2022/07/29 08:16:24;;;;;;;;;3.75;3.75;;;;;;;;5017263;28;45399;-73
2022/07/29 08:18:50;;;;;;;;;5.00;3.33;;;;;;;;5016633;28;45415;-74
2022/07/29 08:21:16;;;;;;;;;4.00;4.00;;;;;;;;5016302;28;45306;-73
2022/07/29 08:23:52;;;;;;;;;5.67;4.67;;;;;;;;5016765;28;46099;-72
2022/07/29 08:26:18;;;;;;;;;5.00;5.00;;;;;;;;5017064;28;45249;-72
2022/07/29 08:28:45;;;;;;;;;3.00;3.00;;;;;;;;5009874;28;45317;-73
2022/07/29 08:31:10;;;;;;;;;5.25;4.75;;;;;;;;5016551;28;45389;-73
2022/07/29 08:33:36;;;;;;;;;3.00;3.00;;;;;;;;5012643;28;47107;-73
2022/07/29 08:36:01;;;;;;;;;4.33;4.33;;;;;;;;5016905;28;45367;-73
2022/07/29 08:38:27;;;;;;;;;4.00;4.00;;;;;;;;5016791;28;45280;-72
2022/07/29 08:40:52;;;;;;;;;3.33;3.33;;;;;;;;5016182;28;45487;-73
2022/07/29 08:43:18;;;;;;;;;6.00;5.00;;;;;;;;5016763;28;46218;-73
2022/07/29 08:45:45;;;;;;;;;5.00;5.00;;;;;;;;5016324;28;45368;-73
2022/07/29 08:48:14;;;;;;;;;6.00;4.33;;;;;;;;5016718;28;45346;-73
2022/07/29 08:50:39;;;;;;;;;6.33;4.00;;;;;;;;5016006;28;45357;-73
2022/07/29 08:53:06;;;;;;;;;4.00;4.00;;;;;;;;5016122;28;46202;-73
2022/07/29 08:55:32;;;;;;;;;5.33;4.00;;;;;;;;5012788;28;45436;-72
2022/07/29 08:57:58;;;;;;;;;3.33;3.33;;;;;;;;5015919;28;45467;-73
2022/07/29 09:00:24;;;;;;;;;5.33;3.00;;;;;;;;5007528;28;45353;-73
2022/07/29 09:02:55;;;;;;;;;4.67;4.67;;;;;;;;5016421;28;47123;-73
2022/07/29 09:05:22;;;;;;;;;4.33;4.33;;;;;;;;5010193;28;45493;-72
2022/07/29 09:07:47;;;;;;;;;5.33;4.00;;;;;;;;5012710;28;45380;-72
2022/07/29 09:10:13;;;;;;;;;4.00;3.67;;;;;;;;5016396;28;45358;-73
2022/07/29 09:12:38;;;;;;;;;7.67;4.00;;;;;;;;5014863;28;47219;-73
2022/07/29 09:15:03;;;;;;;;;7.33;4.00;;;;;;;;5016183;28;45348;-72
2022/07/29 09:17:48;;;;;;;;;3.75;3.75;;;;;;;;5015633;28;45889;-72
2022/07/29 09:20:15;;;;;;;;;4.00;4.00;;;;;;;;5015967;28;45412;-73
2022/07/29 09:22:40;;;;;;;;;4.67;4.67;;;;;;;;5015008;28;45469;-72
2022/07/29 09:25:05;;;;;;;;;4.00;4.00;;;;;;;;5016101;28;45261;-73
2022/07/29 09:27:31;;;;;;;;;4.00;4.00;;;;;;;;5015431;28;45395;-72
2022/07/29 09:29:57;;;;;;;;;4.33;4.33;;;;;;;;5015944;28;46005;-73
2022/07/29 09:32:22;;;;;;;;;4.00;4.00;;;;;;;;5013021;28;46854;-73
2022/07/29 09:34:48;;;;;;;;;3.67;3.67;;;;;;;;5014257;28;45307;-73
2022/07/29 09:37:25;;;;;;;;;4.00;4.00;;;;;;;;5016222;28;45378;-73
2022/07/29 09:39:51;;;;;;;;;5.33;3.00;;;;;;;;5015932;28;45379;-73
2022/07/29 09:42:26;;;;;;;;;3.00;3.00;;;;;;;;5015610;28;45402;-72
2022/07/29 09:44:52;;;;;;;;;5.00;5.00;;;;;;;;5011935;28;45415;-73
2022/07/29 09:47:17;;;;;;;;;6.33;4.00;;;;;;;;5005943;28;45352;-73
2022/07/29 09:49:57;;;;;;;;;4.33;4.00;;;;;;;;5015420;28;45312;-73
2022/07/29 09:52:23;;;;;;;;;5.00;5.00;;;;;;;;5015627;28;46146;-73
2022/07/29 09:54:48;;;;;;;;;3.33;3.00;;;;;;;;5015785;28;45582;-72
2022/07/29 09:57:33;;;;;;;;;6.00;5.00;;;;;;;;5015899;28;45240;-72
2022/07/29 10:00:05;;;;;;;;;4.00;4.00;;;;;;;;5003245;28;45515;-73
2022/07/29 10:02:32;;;;;;;;;3.33;3.33;;;;;;;;5003542;28;46909;-73
2022/07/29 10:04:57;;;;;;;;;3.67;3.67;;;;;;;;5015248;28;45392;-73
2022/07/29 10:07:23;;;;;;;;;5.00;2.33;;;;;;;;5014947;28;45305;-72
2022/07/29 10:09:55;;;;;;;;;6.33;4.00;;;;;;;;5015621;28;45266;-73
2022/07/29 10:12:20;;;;;;;;;7.00;5.00;;;;;;;;5015545;28;45298;-73
2022/07/29 10:14:46;;;;;;;;;5.67;4.00;;;;;;;;5015039;28;45389;-72
2022/07/29 10:17:11;;;;;;;;;2.33;2.33;;;;;;;;5005618;28;45323;-73
2022/07/29 10:19:37;;;;;;;;;5.00;4.00;;;;;;;;5011531;28;45388;-73
2022/07/29 10:22:04;;;;;;;;;6.33;4.00;;;;;;;;5015072;28;46812;-73
2022/07/29 10:24:30;;;;;;;;;4.00;4.00;;;;;;;;5015287;28;45396;-73
2022/07/29 10:26:56;;;;;;;;;4.00;4.00;;;;;;;;5005978;28;45476;-72
2022/07/29 10:29:21;;;;;;;;;3.00;3.00;;;;;;;;5014936;28;45492;-73
2022/07/29 10:31:55;;;;;;;;;3.67;3.67;;;;;;;;5014450;28;46376;-73
2022/07/29 10:34:21;;;;;;;;;3.67;3.00;;;;;;;;5014681;28;45478;-73
2022/07/29 10:36:54;;;;;;;;;3.33;3.00;;;;;;;;5014756;28;45280;-73
2022/07/29 10:39:34;;;;;;;;;3.67;3.67;;;;;;;;5014199;28;45437;-72
2022/07/29 10:42:24;;;;;;;;;4.33;4.33;;;;;;;;5014550;28;45392;-73
2022/07/29 10:44:50;;;;;;;;;4.00;3.00;;;;;;;;5004902;28;45452;-73
2022/07/29 10:47:19;;;;;;;;;4.00;2.33;;;;;;;;5009542;28;45426;-71
2022/07/29 10:49:55;;;;;;;;;3.00;3.00;;;;;;;;5014770;28;45273;-72
2022/07/29 10:52:22;;;;;;;;;3.00;3.00;;;;;;;;5015122;28;45506;-73
2022/07/29 10:54:49;;;;;;;;;4.00;4.00;;;;;;;;5014961;28;45400;-73
2022/07/29 10:57:20;;;;;;;;;5.00;4.00;;;;;;;;5015112;28;45395;-72
2022/07/29 10:59:46;;;;;;;;;4.67;3.67;;;;;;;;5014800;28;45521;-72
2022/07/29 11:02:32;;;;;;;;;4.00;4.00;;;;;;;;5014307;28;46157;-72
2022/07/29 11:04:57;;;;;;;;;4.00;4.00;;;;;;;;5008974;28;45289;-72
2022/07/29 11:07:22;;;;;;;;;5.00;5.00;;;;;;;;5014702;28;45225;-72
2022/07/29 11:10:06;;;;;;;;;3.00;2.33;;;;;;;;5014979;28;45326;-73
2022/07/29 11:12:37;;;;;;;;;3.00;3.00;;;;;;;;5015478;28;46182;-73
2022/07/29 11:15:07;;;;;;;;;3.33;3.33;;;;;;;;5018037;28;45517;-73
2022/07/29 11:17:51;;;;;;;;;4.67;3.67;;;;;;;;5017851;28;45432;-74
2022/07/29 11:20:35;;;;;;;;;4.33;4.33;;;;;;;;5018135;28;45405;-74
2022/07/29 11:23:00;;;;;;;;;4.00;4.00;;;;;;;;5018058;28;46081;-73
2022/07/29 11:25:26;;;;;;;;;5.00;3.33;;;;;;;;5015521;28;45515;-75
2022/07/29 11:27:52;;;;;;;;;4.33;3.00;;;;;;;;5011291;28;45324;-73
2022/07/29 11:30:17;;;;;;;;;3.00;3.00;;;;;;;;5015178;28;45360;-73
2022/07/29 11:32:44;;;;;;;;;3.00;3.00;;;;;;;;5017287;28;47286;-72
2022/07/29 11:35:23;;;;;;;;;4.00;4.00;;;;;;;;5017582;28;45543;-73
2022/07/29 11:38:06;;;;;;;;;4.00;4.00;;;;;;;;5017884;28;45412;-73
2022/07/29 11:40:32;;;;;;;;;4.67;3.00;;;;;;;;5015539;28;45480;-72
2022/07/29 11:42:57;;;;;;;;;3.00;3.00;;;;;;;;5014812;28;46769;-72
2022/07/29 11:45:23;;;;;;;;;5.00;5.00;;;;;;;;5017424;28;45340;-73
2022/07/29 11:47:50;;;;;;;;;3.00;2.67;;;;;;;;5017988;28;45329;-72
2022/07/29 11:50:17;;;;;;;;;3.00;3.00;;;;;;;;5017685;28;45570;-72
2022/07/29 11:52:45;;;;;;;;;5.33;4.33;;;;;;;;5010615;28;46215;-73
2022/07/29 11:55:12;;;;;;;;;3.00;3.00;;;;;;;;5017924;28;45277;-73
2022/07/29 11:57:44;;;;;;;;;4.33;4.33;;;;;;;;5015575;28;45372;-74
2022/07/29 12:00:10;;;;;;;;;3.00;3.00;;;;;;;;5017141;28;45375;-72
2022/07/29 12:02:42;;;;;;;;;5.00;3.67;;;;;;;;5017309;28;45931;-72
2022/07/29 12:05:09;;;;;;;;;4.33;3.00;;;;;;;;5016380;28;45356;-72
2022/07/29 12:07:36;;;;;;;;;2.67;2.00;;;;;;;;5014622;28;45366;-72
2022/07/29 12:10:02;;;;;;;;;6.00;5.00;;;;;;;;5017316;28;45426;-72
2022/07/29 12:12:27;;;;;;;;;3.00;3.00;;;;;;;;5016197;28;46354;-72
2022/07/29 12:14:54;;;;;;;;;3.00;3.00;;;;;;;;5014440;28;45591;-72
2022/07/29 12:17:27;;;;;;;;;3.67;3.67;;;;;;;;5017302;28;45371;-72
2022/07/29 12:19:53;;;;;;;;;3.00;3.00;;;;;;;;5004739;28;45385;-72
2022/07/29 12:22:29;;;;;;;;;4.33;3.00;;;;;;;;5017010;28;46983;-72
2022/07/29 12:24:55;;;;;;;;;3.00;3.00;;;;;;;;5006185;28;45470;-72
2022/07/29 12:27:20;;;;;;;;;4.67;4.67;;;;;;;;5015548;28;45382;-73
2022/07/29 12:29:56;;;;;;;;;2.67;2.67;;;;;;;;5011999;28;45254;-72
2022/07/29 12:32:21;;;;;;;;;3.00;3.00;;;;;;;;5010090;28;47025;-72
2022/07/29 12:34:46;;;;;;;;;4.00;3.33;;;;;;;;5010536;28;45325;-72
2022/07/29 12:37:11;;;;;;;;;3.33;3.33;;;;;;;;5017386;28;45384;-72
2022/07/29 12:39:37;;;;;;;;;5.00;4.00;;;;;;;;5013810;28;45431;-72
2022/07/29 12:42:10;;;;;;;;;3.00;2.67;;;;;;;;5010769;28;46241;-72
2022/07/29 12:44:44;;;;;;;;;2.00;2.00;;;;;;;;5011180;28;45411;-72
2022/07/29 12:47:09;;;;;;;;;3.33;3.00;;;;;;;;5016608;28;45466;-72
2022/07/29 12:49:34;;;;;;;;;2.33;2.33;;;;;;;;5016066;28;45427;-72
2022/07/29 12:52:01;;;;;;;;;3.00;3.00;;;;;;;;5014260;28;47134;-72
2022/07/29 12:54:26;;;;;;;;;3.33;3.33;;;;;;;;5013129;28;45361;-72
2022/07/29 12:56:58;;;;;;;;;3.00;3.00;;;;;;;;5007091;28;45321;-72
2022/07/29 12:59:23;;;;;;;;;7.00;4.00;;;;;;;;5016286;28;45514;-72
2022/07/29 13:01:51;;;;;;;;;6.00;4.00;;;;;;;;5009069;28;45547;-72
2022/07/29 13:04:24;;;;;;;;;3.33;3.00;;;;;;;;5011263;28;45435;-72
2022/07/29 13:06:57;;;;;;;;;2.33;2.33;;;;;;;;5016809;28;45459;-72
2022/07/29 13:09:23;;;;;;;;;4.00;4.00;;;;;;;;5015915;28;45483;-73
2022/07/29 13:11:49;;;;;;;;;4.33;4.00;;;;;;;;5015478;28;46216;-73
2022/07/29 13:14:29;;;;;;;;;4.00;4.00;;;;;;;;5009344;28;45625;-72
2022/07/29 13:17:04;;;;;;;;;3.00;3.00;;;;;;;;5015898;28;45679;-72
2022/07/29 13:19:58;;;;;;;;;3.00;2.33;;;;;;;;5015253;28;45304;-73
2022/07/29 13:22:23;;;;;;;;;5.67;4.00;;;;;;;;5011011;28;45321;-73
2022/07/29 13:24:53;;;;;;;;;3.00;3.00;;;;;;;;5005873;28;45458;-72
2022/07/29 13:27:19;;;;;;;;;2.00;2.00;;;;;;;;5016098;28;45282;-73
2022/07/29 13:29:45;;;;;;;;;5.00;3.33;;;;;;;;5014303;28;45351;-73
2022/07/29 13:32:11;;;;;;;;;3.00;2.67;;;;;;;;5015759;28;47154;-72
2022/07/29 13:34:36;;;;;;;;;3.00;3.00;;;;;;;;5016144;28;45432;-72
2022/07/29 13:37:01;;;;;;;;;3.00;3.00;;;;;;;;5015924;28;45427;-72
2022/07/29 13:39:27;;;;;;;;;4.00;4.00;;;;;;;;5015284;28;45374;-72
2022/07/29 13:41:52;;;;;;;;;4.00;4.00;;;;;;;;5014801;28;45572;-72
2022/07/29 13:44:17;;;;;;;;;6.00;4.00;;;;;;;;5015666;28;45366;-72
2022/07/29 13:46:42;;;;;;;;;2.00;2.00;;;;;;;;5015422;28;45498;-72
2022/07/29 13:49:08;;;;;;;;;4.33;4.00;;;;;;;;5017641;28;45356;-72
2022/07/29 13:51:33;;;;;;;;;4.00;3.00;;;;;;;;5027122;28;46264;-72
2022/07/29 13:53:58;;;;;;;;;4.00;4.00;;;;;;;;5015645;28;45265;-73
2022/07/29 13:56:23;;;;;;;;;3.67;3.67;;;;;;;;5014749;28;45372;-72
2022/07/29 13:58:48;;;;;;;;;5.00;4.00;;;;;;;;5015270;28;45336;-72
2022/07/29 14:01:14;;;;;;;;;3.67;3.67;;;;;;;;5013423;28;46939;-73
2022/07/29 14:03:41;;;;;;;;;4.00;4.00;;;;;;;;5010161;28;45416;-72
2022/07/29 14:06:06;;;;;;;;;3.67;3.67;;;;;;;;5015732;28;45487;-72
2022/07/29 14:08:31;;;;;;;;;3.33;3.33;;;;;;;;5013430;28;45435;-72
2022/07/29 14:10:56;;;;;;;;;3.00;3.00;;;;;;;;5014143;28;46179;-73
2022/07/29 14:13:21;;;;;;;;;3.00;3.00;;;;;;;;5010561;28;45359;-72
2022/07/29 14:15:47;;;;;;;;;4.67;4.67;;;;;;;;5012860;28;45435;-72
2022/07/29 14:18:12;;;;;;;;;3.67;3.67;;;;;;;;5008613;28;45444;-72
2022/07/29 14:20:37;;;;;;;;;4.00;4.00;;;;;;;;5014767;28;46235;-72
2022/07/29 14:23:02;;;;;;;;;3.67;3.67;;;;;;;;5014497;28;45313;-72
2022/07/29 14:25:28;;;;;;;;;4.67;4.67;;;;;;;;5015144;28;45357;-72
2022/07/29 14:27:53;;;;;;;;;4.00;4.00;;;;;;;;5010013;28;45530;-72
2022/07/29 14:30:19;;;;;;;;;2.00;2.00;;;;;;;;5014964;28;45999;-72
2022/07/29 14:32:44;;;;;;;;;5.33;4.00;;;;;;;;5015278;28;45444;-72
2022/07/29 14:35:09;;;;;;;;;5.00;5.00;;;;;;;;5015147;28;45380;-72
2022/07/29 14:37:35;;;;;;;;;2.67;2.67;;;;;;;;5005430;28;45270;-73
2022/07/29 14:40:03;;;;;;;;;4.00;4.00;;;;;;;;5014497;28;46079;-72
2022/07/29 14:42:28;;;;;;;;;3.67;3.67;;;;;;;;5015011;28;45416;-72
2022/07/29 14:44:53;;;;;;;;;4.00;4.00;;;;;;;;5014475;28;45436;-72
2022/07/29 14:47:19;;;;;;;;;5.67;5.67;;;;;;;;5015417;28;45306;-72
2022/07/29 14:49:44;;;;;;;;;3.33;3.33;;;;;;;;5018544;28;46296;-72